Time;durP1;ratioP1;P1;durP2;ratioP2;P2;SDS_P1;SDS_P2;PMS_P1;PMS_P2;Temp;Humidity;BMP_temperature;BMP_pressure;BME280_temperature;BME280_humidity;BME280_pressure;Samples;Min_cycle;Max_cycle;Signal;HPM_P1;HPM_P2
2021/04/20 00:01:11;;;;;;;5.15;2.97;;;9.50;75.30;;;;;;5073233;28;20086;-70
2021/04/20 00:03:37;;;;;;;5.22;3.35;;;9.50;75.30;;;;;;5074008;28;20489;-70
2021/04/20 00:06:04;;;;;;;6.00;3.20;;;9.50;75.40;;;;;;5074021;28;20032;-70
2021/04/20 00:08:30;;;;;;;4.03;2.85;;;9.50;75.40;;;;;;5072041;28;20024;-70
2021/04/20 00:10:55;;;;;;;5.45;3.15;;;9.50;75.40;;;;;;5073803;28;20052;-70
2021/04/20 00:13:21;;;;;;;4.20;2.80;;;9.50;75.40;;;;;;5073815;28;20039;-70
2021/04/20 00:15:47;;;;;;;4.50;2.88;;;9.50;75.40;;;;;;5073640;28;20095;-70
2021/04/20 00:18:12;;;;;;;5.00;2.72;;;9.50;75.40;;;;;;5073639;28;20024;-70
2021/04/20 00:20:38;;;;;;;4.32;2.88;;;9.50;75.50;;;;;;5073714;28;20453;-70
2021/04/20 00:23:08;;;;;;;4.65;2.95;;;9.50;75.40;;;;;;5073161;28;20074;-69
2021/04/20 00:25:34;;;;;;;4.63;3.03;;;9.50;75.50;;;;;;5073536;28;20035;-70
2021/04/20 00:27:59;;;;;;;3.97;3.15;;;9.50;75.50;;;;;;5073520;28;20108;-70
2021/04/20 00:30:25;;;;;;;4.53;2.80;;;9.50;75.60;;;;;;5073601;28;20020;-70
2021/04/20 00:32:51;;;;;;;4.72;3.22;;;9.50;75.60;;;;;;5073403;28;20028;-70
2021/04/20 00:35:17;;;;;;;4.57;2.83;;;9.40;75.60;;;;;;5072202;28;20468;-70
2021/04/20 00:37:43;;;;;;;4.93;2.97;;;9.40;75.60;;;;;;5073007;28;20039;-69
2021/04/20 00:40:11;;;;;;;6.07;3.72;;;9.40;75.60;;;;;;5073220;28;20028;-70
2021/04/20 00:42:54;;;;;;;5.47;3.40;;;9.40;75.60;;;;;;5073137;28;20511;-69
2021/04/20 00:45:23;;;;;;;5.22;3.47;;;9.40;75.70;;;;;;5073228;28;20049;-70
2021/04/20 00:47:48;;;;;;;4.90;3.10;;;9.40;75.70;;;;;;5073230;28;20024;-70
2021/04/20 00:50:16;;;;;;;4.72;3.28;;;9.40;75.70;;;;;;5073141;28;20102;-70
2021/04/20 00:52:42;;;;;;;5.50;3.13;;;9.40;75.70;;;;;;5072565;28;20115;-69
2021/04/20 00:55:08;;;;;;;4.97;3.10;;;9.30;75.70;;;;;;5073110;28;20052;-70
2021/04/20 00:57:34;;;;;;;4.07;2.88;;;9.30;75.70;;;;;;5072999;28;20103;-70
2021/04/20 01:00:00;;;;;;;5.30;3.83;;;9.30;75.70;;;;;;5072931;28;20401;-70
2021/04/20 01:02:26;;;;;;;5.55;3.30;;;9.30;75.70;;;;;;5072933;28;20515;-70
2021/04/20 01:04:52;;;;;;;5.00;3.00;;;9.30;75.80;;;;;;5072624;28;20496;-70
2021/04/20 01:07:17;;;;;;;5.72;4.82;;;9.30;75.80;;;;;;5072942;28;20082;-70
2021/04/20 01:09:43;;;;;;;3.47;2.80;;;9.30;75.80;;;;;;5072930;28;20028;-70
2021/04/20 01:12:09;;;;;;;4.53;3.60;;;9.30;75.80;;;;;;5072717;28;20104;-70
2021/04/20 01:14:36;;;;;;;5.13;3.47;;;9.30;75.80;;;;;;5072778;28;20023;-70
2021/04/20 01:17:02;;;;;;;3.67;2.85;;;9.30;75.80;;;;;;5072893;28;20028;-70
2021/04/20 01:19:30;;;;;;;5.72;3.70;;;9.30;75.80;;;;;;5072444;28;20025;-70
2021/04/20 01:21:58;;;;;;;5.90;3.90;;;9.30;75.80;;;;;;5072871;28;20067;-70
2021/04/20 01:24:25;;;;;;;4.68;2.85;;;9.30;75.90;;;;;;5072686;28;20020;-70
2021/04/20 01:26:52;;;;;;;4.40;3.08;;;9.30;75.90;;;;;;5072830;28;20028;-70
2021/04/20 01:29:20;;;;;;;5.95;4.15;;;9.30;76.00;;;;;;5072990;28;20025;-70
2021/04/20 01:31:46;;;;;;;5.43;3.60;;;9.20;75.90;;;;;;5072794;28;20035;-70
2021/04/20 01:34:12;;;;;;;5.10;3.22;;;9.20;76.00;;;;;;5072262;28;20099;-69
2021/04/20 01:36:38;;;;;;;4.47;2.80;;;9.30;76.00;;;;;;5072688;28;20070;-69
2021/04/20 01:39:06;;;;;;;5.88;3.72;;;9.20;76.00;;;;;;5072620;28;20021;-70
2021/04/20 01:41:33;;;;;;;4.75;3.40;;;9.20;76.00;;;;;;5072408;28;20489;-69
2021/04/20 01:43:59;;;;;;;6.32;4.38;;;9.20;76.10;;;;;;5072561;28;20112;-69
2021/04/20 01:46:25;;;;;;;4.70;2.97;;;9.20;76.20;;;;;;5072628;28;20043;-69
2021/04/20 01:48:50;;;;;;;6.43;3.80;;;9.20;76.20;;;;;;5071844;28;20016;-70
2021/04/20 01:51:18;;;;;;;5.88;4.25;;;9.20;76.20;;;;;;5072501;28;20025;-69
2021/04/20 01:53:44;;;;;;;5.35;3.33;;;9.10;76.30;;;;;;5072579;28;20082;-72
2021/04/20 01:56:12;;;;;;;5.10;3.20;;;9.10;76.40;;;;;;5072587;28;20024;-69
2021/04/20 01:58:40;;;;;;;6.22;3.92;;;9.10;76.60;;;;;;5071187;28;20017;-69
2021/04/20 02:01:15;;;;;;;5.97;4.32;;;9.10;76.50;;;;;;5072378;28;20042;-69
2021/04/20 02:03:44;;;;;;;5.97;3.53;;;9.00;76.50;;;;;;5071956;28;20099;-69
2021/04/20 02:06:12;;;;;;;6.32;4.00;;;9.00;76.60;;;;;;5072485;28;20488;-69
2021/04/20 02:08:38;;;;;;;5.70;3.58;;;8.90;76.60;;;;;;5072318;28;20070;-69
2021/04/20 02:11:07;;;;;;;5.93;3.88;;;8.90;76.60;;;;;;5071025;28;20385;-69
2021/04/20 02:13:33;;;;;;;6.30;3.80;;;8.90;76.70;;;;;;5072398;28;20021;-69
2021/04/20 02:16:03;;;;;;;5.97;3.42;;;8.90;76.70;;;;;;5072279;28;20070;-68
2021/04/20 02:18:32;;;;;;;6.25;3.70;;;8.90;76.80;;;;;;5071566;28;20029;-69
2021/04/20 02:20:59;;;;;;;5.40;3.30;;;8.80;76.80;;;;;;5072267;28;20469;-69
2021/04/20 02:23:25;;;;;;;5.25;3.65;;;8.80;76.80;;;;;;5072350;28;20047;-69
2021/04/20 02:25:52;;;;;;;5.90;3.53;;;8.80;76.90;;;;;;5075640;28;20412;-70
2021/04/20 02:28:18;;;;;;;6.43;3.72;;;8.80;76.90;;;;;;5075832;28;20318;-70
2021/04/20 02:30:44;;;;;;;6.65;3.80;;;8.80;77.00;;;;;;5075563;28;20540;-69
2021/04/20 02:33:11;;;;;;;6.03;4.50;;;8.80;77.00;;;;;;5075295;28;20358;-70
2021/04/20 02:35:36;;;;;;;5.32;3.10;;;8.80;77.00;;;;;;5075669;28;20024;-70
2021/04/20 02:38:02;;;;;;;6.15;3.58;;;8.80;76.90;;;;;;5075493;28;20016;-70
2021/04/20 02:40:33;;;;;;;6.05;3.47;;;8.80;77.00;;;;;;5075555;28;20416;-69
2021/04/20 02:42:59;;;;;;;6.90;3.80;;;8.80;77.00;;;;;;5075378;28;20036;-70
2021/04/20 02:45:27;;;;;;;4.95;3.35;;;8.80;76.90;;;;;;5075248;28;20143;-69
2021/04/20 02:47:54;;;;;;;4.35;2.88;;;8.80;76.90;;;;;;5074918;28;20542;-69
2021/04/20 02:50:26;;;;;;;6.60;3.97;;;8.70;76.80;;;;;;5075629;28;20027;-70
2021/04/20 02:52:53;;;;;;;5.63;3.00;;;8.70;76.80;;;;;;5075265;28;20028;-69
2021/04/20 02:55:20;;;;;;;5.05;3.45;;;8.70;76.90;;;;;;5075122;28;20020;-69
2021/04/20 02:57:50;;;;;;;6.53;3.78;;;8.70;77.00;;;;;;5075313;28;20055;-70
2021/04/20 03:00:18;;;;;;;5.20;3.70;;;8.60;77.00;;;;;;5075289;28;20510;-70
2021/04/20 03:02:46;;;;;;;5.28;3.60;;;8.50;77.00;;;;;;5074643;28;20107;-69
2021/04/20 03:05:15;;;;;;;4.78;3.00;;;8.50;77.10;;;;;;5074859;28;20481;-69
2021/04/20 03:07:42;;;;;;;4.93;3.10;;;8.50;77.20;;;;;;5075202;28;20386;-70
2021/04/20 03:10:08;;;;;;;5.40;3.28;;;8.40;77.20;;;;;;5075052;28;20274;-69
2021/04/20 03:12:39;;;;;;;5.80;4.00;;;8.40;77.20;;;;;;5074977;28;20040;-69
2021/04/20 03:15:07;;;;;;;5.57;4.00;;;8.40;77.20;;;;;;5074968;28;20036;-69
2021/04/20 03:17:33;;;;;;;6.80;4.32;;;8.40;77.30;;;;;;5074423;28;20020;-69
2021/04/20 03:19:58;;;;;;;6.43;4.60;;;8.30;77.40;;;;;;5074901;28;20044;-69
2021/04/20 03:22:25;;;;;;;5.32;3.65;;;8.30;77.40;;;;;;5074572;28;20067;-70
2021/04/20 03:25:04;;;;;;;5.88;3.38;;;8.30;77.50;;;;;;5073571;28;20009;-70
2021/04/20 03:27:30;;;;;;;6.13;3.90;;;8.20;77.50;;;;;;5074914;28;20098;-69
2021/04/20 03:29:55;;;;;;;7.05;3.75;;;8.20;77.60;;;;;;5074365;28;20032;-69
2021/04/20 03:32:21;;;;;;;6.07;4.15;;;8.20;77.70;;;;;;5074600;28;20029;-69
2021/04/20 03:34:56;;;;;;;6.28;4.13;;;8.10;77.70;;;;;;5074299;28;20146;-70
2021/04/20 03:37:50;;;;;;;5.72;3.53;;;8.10;77.70;;;;;;5073670;28;20071;-70
2021/04/20 03:40:19;;;;;;;6.45;4.15;;;8.10;78.30;;;;;;5073148;28;20025;-70
2021/04/20 03:42:53;;;;;;;6.00;3.38;;;8.00;77.70;;;;;;5074337;28;20028;-69
2021/04/20 03:45:37;;;;;;;7.80;4.53;;;7.90;77.80;;;;;;5073677;28;20040;-69
2021/04/20 03:48:29;;;;;;;6.85;5.28;;;7.80;78.00;;;;;;5074096;28;20464;-69
2021/04/20 03:51:00;;;;;;;8.15;4.72;;;7.70;78.10;;;;;;5074138;28;20016;-69
2021/04/20 03:53:28;;;;;;;5.63;3.35;;;7.60;78.30;;;;;;5074072;28;20449;-69
2021/04/20 03:55:54;;;;;;;6.05;4.30;;;7.50;78.40;;;;;;5074040;28;20025;-69
2021/04/20 03:58:22;;;;;;;8.20;5.47;;;7.50;78.50;;;;;;5073838;28;20056;-70
2021/04/20 04:00:55;;;;;;;6.75;4.03;;;7.40;78.50;;;;;;5073503;28;20017;-69
2021/04/20 04:03:24;;;;;;;7.15;3.75;;;7.40;78.50;;;;;;5074025;28;20111;-70
2021/04/20 04:05:51;;;;;;;6.72;3.95;;;7.30;78.50;;;;;;5073995;28;20063;-70
2021/04/20 04:08:18;;;;;;;7.15;4.13;;;7.30;78.60;;;;;;5073694;28;20024;-70
2021/04/20 04:10:47;;;;;;;7.20;4.25;;;7.30;78.70;;;;;;5073875;28;20024;-70
2021/04/20 04:13:15;;;;;;;5.63;3.67;;;7.20;78.60;;;;;;5074069;28;20475;-69
2021/04/20 04:15:41;;;;;;;5.78;3.90;;;7.20;78.60;;;;;;5073498;28;20025;-69
2021/04/20 04:18:11;;;;;;;6.40;4.38;;;7.20;78.60;;;;;;5073597;28;20016;-69
2021/04/20 04:20:36;;;;;;;5.65;3.90;;;7.10;78.70;;;;;;5073678;28;20072;-69
2021/04/20 04:23:14;;;;;;;6.43;4.05;;;7.10;78.80;;;;;;5073765;28;20036;-69
2021/04/20 04:25:47;;;;;;;5.75;4.80;;;7.10;78.70;;;;;;5073755;28;20023;-69
2021/04/20 04:28:14;;;;;;;7.63;4.38;;;7.00;78.70;;;;;;5073220;28;20052;-69
2021/04/20 04:30:40;;;;;;;8.02;5.32;;;7.00;78.80;;;;;;5073494;28;20027;-70
2021/04/20 04:33:06;;;;;;;7.38;4.28;;;7.00;78.90;;;;;;5073573;28;20035;-69
2021/04/20 04:35:35;;;;;;;6.43;4.00;;;7.00;79.00;;;;;;5073420;28;20103;-69
2021/04/20 04:38:01;;;;;;;5.73;3.60;;;7.00;79.00;;;;;;5073512;28;20059;-69
2021/04/20 04:40:28;;;;;;;7.50;4.53;;;7.00;79.00;;;;;;5073232;28;20321;-69
2021/04/20 04:42:53;;;;;;;6.43;3.80;;;7.00;78.80;;;;;;5072911;28;20060;-69
2021/04/20 04:45:20;;;;;;;7.22;4.07;;;6.90;78.80;;;;;;5072084;28;20489;-69
2021/04/20 04:47:45;;;;;;;6.32;3.63;;;6.90;78.90;;;;;;5072893;28;20465;-69
2021/04/20 04:50:12;;;;;;;6.15;3.67;;;7.00;78.80;;;;;;5073313;28;20089;-70
2021/04/20 04:52:39;;;;;;;6.15;3.17;;;7.00;78.80;;;;;;5073273;28;20065;-69
2021/04/20 04:55:06;;;;;;;6.07;3.83;;;7.00;78.70;;;;;;5073386;28;20020;-69
2021/04/20 04:57:34;;;;;;;5.13;3.13;;;7.10;78.60;;;;;;5072751;28;20028;-70
2021/04/20 05:00:09;;;;;;;5.32;3.13;;;7.10;78.50;;;;;;5073322;28;20021;-69
2021/04/20 05:02:36;;;;;;;5.97;4.03;;;7.10;78.50;;;;;;5073000;28;20488;-70
2021/04/20 05:05:06;;;;;;;6.30;3.72;;;7.10;78.40;;;;;;5073030;28;20387;-69
2021/04/20 05:07:32;;;;;;;5.40;3.60;;;7.20;78.40;;;;;;5072975;28;20103;-69
2021/04/20 05:10:04;;;;;;;5.07;2.70;;;7.20;78.40;;;;;;5073070;28;20099;-69
2021/04/20 05:12:31;;;;;;;4.90;2.88;;;7.20;78.40;;;;;;5072565;28;20020;-69
2021/04/20 05:15:02;;;;;;;4.72;3.53;;;7.20;78.40;;;;;;5072823;28;20020;-69
2021/04/20 05:17:29;;;;;;;5.90;3.42;;;7.20;78.50;;;;;;5073210;28;20487;-69
2021/04/20 05:19:55;;;;;;;5.95;3.65;;;7.20;78.60;;;;;;5073096;28;20099;-70
2021/04/20 05:22:21;;;;;;;5.05;3.45;;;7.20;78.70;;;;;;5072936;28;20109;-70
2021/04/20 05:24:47;;;;;;;5.28;3.45;;;7.20;78.70;;;;;;5072996;28;20020;-70
2021/04/20 05:27:12;;;;;;;5.15;3.65;;;7.20;78.70;;;;;;5072513;28;20132;-70
2021/04/20 05:29:41;;;;;;;6.28;3.10;;;7.30;78.70;;;;;;5072750;28;20099;-71
2021/04/20 05:32:10;;;;;;;4.82;3.55;;;7.30;78.70;;;;;;5072739;28;20082;-70
2021/04/20 05:34:36;;;;;;;6.18;3.72;;;7.40;78.70;;;;;;5072825;28;20020;-71
2021/04/20 05:37:02;;;;;;;5.28;3.25;;;7.50;78.50;;;;;;5072960;28;20388;-71
2021/04/20 05:39:28;;;;;;;6.00;4.63;;;7.60;78.30;;;;;;5072826;28;20579;-70
2021/04/20 05:41:54;;;;;;;5.55;3.65;;;7.70;78.20;;;;;;5072311;28;20033;-71
2021/04/20 05:44:20;;;;;;;6.07;3.38;;;7.90;78.10;;;;;;5072502;28;20067;-71
2021/04/20 05:46:47;;;;;;;4.65;3.20;;;8.00;78.00;;;;;;5072662;28;20017;-71
2021/04/20 05:49:14;;;;;;;4.03;3.08;;;8.10;77.90;;;;;;5072702;28;20031;-70
2021/04/20 05:51:40;;;;;;;5.70;3.95;;;8.20;77.80;;;;;;5071186;28;20366;-70
2021/04/20 05:54:06;;;;;;;6.53;4.22;;;8.40;77.70;;;;;;5072710;28;20028;-71
2021/04/20 05:56:32;;;;;;;4.82;2.97;;;8.50;77.60;;;;;;5072154;28;20021;-70
2021/04/20 05:59:00;;;;;;;5.38;3.90;;;8.60;77.60;;;;;;5073140;28;20032;-71
2021/04/20 06:01:27;;;;;;;6.07;3.45;;;8.70;77.50;;;;;;5076128;28;20032;-71
2021/04/20 06:03:53;;;;;;;5.80;3.35;;;8.70;77.50;;;;;;5076158;28;20389;-71
2021/04/20 06:06:21;;;;;;;5.35;3.30;;;8.90;77.60;;;;;;5076333;28;20020;-71
2021/04/20 06:08:48;;;;;;;5.05;3.22;;;9.00;77.50;;;;;;5076296;28;20028;-70
2021/04/20 06:11:15;;;;;;;6.50;3.55;;;9.00;77.40;;;;;;5075648;28;20033;-70
2021/04/20 06:13:41;;;;;;;5.72;3.50;;;9.10;77.30;;;;;;5076079;28;20021;-70
2021/04/20 06:16:07;;;;;;;5.45;3.17;;;9.20;77.20;;;;;;5076320;28;20028;-71
2021/04/20 06:18:33;;;;;;;7.40;4.07;;;9.30;77.10;;;;;;5076043;28;20050;-72
2021/04/20 06:21:01;;;;;;;5.53;4.05;;;9.40;77.10;;;;;;5075727;28;20074;-72
2021/04/20 06:23:27;;;;;;;4.80;3.38;;;9.40;77.00;;;;;;5074704;28;20070;-71
2021/04/20 06:25:58;;;;;;;4.85;3.58;;;9.50;77.00;;;;;;5075374;28;20027;-72
2021/04/20 06:28:24;;;;;;;6.35;4.60;;;9.70;76.90;;;;;;5074458;28;20107;-71
2021/04/20 06:30:50;;;;;;;5.55;3.67;;;9.70;76.80;;;;;;5075683;28;20021;-70
2021/04/20 06:33:16;;;;;;;4.53;3.10;;;9.80;76.70;;;;;;5075471;28;20575;-71
2021/04/20 06:35:42;;;;;;;5.40;3.33;;;9.90;76.60;;;;;;5075781;28;20024;-71
2021/04/20 06:38:12;;;;;;;5.95;4.13;;;10.00;76.60;;;;;;5074170;28;20111;-70
2021/04/20 06:40:47;;;;;;;5.90;4.32;;;10.10;76.50;;;;;;5075006;28;20028;-70
2021/04/20 06:43:14;;;;;;;4.88;3.05;;;10.20;76.50;;;;;;5075455;28;20102;-70
2021/04/20 06:45:43;;;;;;;5.15;3.70;;;10.30;76.50;;;;;;5074056;28;20066;-70
2021/04/20 06:48:39;;;;;;;5.85;4.28;;;10.30;76.40;;;;;;5075298;28;20028;-70
2021/04/20 06:51:10;;;;;;;3.85;2.83;;;10.50;76.40;;;;;;5075390;28;20017;-70
2021/04/20 06:53:42;;;;;;;5.70;4.22;;;10.50;76.40;;;;;;5074951;28;20107;-71
2021/04/20 06:56:32;;;;;;;4.55;3.30;;;10.60;76.40;;;;;;5073895;28;20024;-72
2021/04/20 06:59:22;;;;;;;5.40;4.32;;;10.60;76.40;;;;;;5075338;28;20039;-71
2021/04/20 07:01:51;;;;;;;6.25;3.80;;;10.70;76.40;;;;;;5075301;28;20468;-71
2021/04/20 07:04:26;;;;;;;6.53;4.55;;;10.70;76.40;;;;;;5075244;28;20020;-71
2021/04/20 07:07:16;;;;;;;5.15;3.60;;;10.80;76.40;;;;;;5073894;28;20052;-71
2021/04/20 07:09:47;;;;;;;5.47;4.65;;;10.90;76.40;;;;;;5074506;28;20032;-71
2021/04/20 07:12:16;;;;;;;5.70;3.88;;;10.90;76.30;;;;;;5075123;28;20130;-72
2021/04/20 07:14:49;;;;;;;4.38;3.15;;;11.00;76.30;;;;;;5075082;28;20025;-72
2021/04/20 07:17:29;;;;;;;5.32;3.72;;;11.10;76.20;;;;;;5074890;28;20028;-71
2021/04/20 07:20:03;;;;;;;;;;;11.20;76.10;;;;;;5075273;28;20074;-73
2021/04/20 07:22:38;;;;;;;5.20;3.45;;;11.20;76.70;;;;;;5074394;28;20319;-73
2021/04/20 07:25:33;;;;;;;5.40;3.95;;;11.30;76.10;;;;;;5073621;28;20368;-73
2021/04/20 07:28:18;;;;;;;8.77;4.88;;;11.40;76.00;;;;;;5075028;28;20370;-73
2021/04/20 07:31:02;;;;;;;5.53;3.85;;;11.50;75.80;;;;;;5073358;28;20021;-73
2021/04/20 07:33:45;;;;;;;6.68;4.35;;;11.60;75.80;;;;;;5074916;28;20074;-73
2021/04/20 07:36:41;;;;;;;5.85;3.53;;;11.70;75.70;;;;;;5074855;28;20016;-73
2021/04/20 07:39:17;;;;;;;7.00;4.50;;;11.80;75.60;;;;;;5074604;28;20028;-73
2021/04/20 07:41:54;;;;;;;6.35;4.63;;;11.80;75.60;;;;;;5074408;28;20036;-73
2021/04/20 07:44:26;;;;;;;5.60;3.58;;;11.90;75.50;;;;;;5074348;28;20051;-73
2021/04/20 07:46:54;;;;;;;5.00;2.75;;;12.10;75.30;;;;;;5074376;28;20043;-73
2021/04/20 07:49:22;;;;;;;5.93;3.92;;;12.10;75.20;;;;;;5074365;28;20017;-73
2021/04/20 07:52:03;;;;;;;5.00;3.42;;;12.20;75.10;;;;;;5072600;28;20024;-73
2021/04/20 07:54:38;;;;;;;5.22;2.80;;;12.30;75.00;;;;;;5074118;28;20047;-73
2021/04/20 07:57:19;;;;;;;5.75;3.60;;;12.40;75.00;;;;;;5072864;28;20477;-73
2021/04/20 08:00:01;;;;;;;6.25;4.07;;;12.50;75.00;;;;;;5072828;28;20379;-73
2021/04/20 08:02:44;;;;;;;5.13;3.60;;;12.60;74.90;;;;;;5072613;28;20033;-73
2021/04/20 08:05:19;;;;;;;6.03;4.05;;;12.70;75.40;;;;;;5074245;28;20020;-72
2021/04/20 08:07:54;;;;;;;3.92;2.72;;;12.70;74.70;;;;;;5072772;28;20435;-72
2021/04/20 08:10:22;;;;;;;5.57;3.60;;;12.80;74.60;;;;;;5071283;28;20020;-71
2021/04/20 08:12:56;;;;;;;4.45;3.42;;;12.90;74.50;;;;;;5068935;28;20031;-72
2021/04/20 08:15:39;;;;;;;4.70;3.20;;;13.00;74.30;;;;;;5073804;28;20031;-72
2021/04/20 08:18:12;;;;;;;4.75;3.20;;;13.10;74.20;;;;;;5072971;28;20055;-72
2021/04/20 08:20:41;;;;;;;5.47;3.28;;;13.20;74.20;;;;;;5073063;28;20025;-72
2021/04/20 08:23:08;;;;;;;5.15;3.13;;;13.20;74.20;;;;;;5072834;28;20051;-72
2021/04/20 08:25:39;;;;;;;4.07;2.50;;;13.20;74.20;;;;;;5071165;28;20055;-72
2021/04/20 08:28:23;;;;;;;4.68;3.08;;;13.30;74.10;;;;;;5072132;28;20024;-72
2021/04/20 08:31:08;;;;;;;3.38;2.05;;;13.40;74.00;;;;;;5072607;28;20099;-72
2021/04/20 08:33:37;;;;;;;4.40;2.70;;;13.60;73.90;;;;;;5073499;28;20025;-72
2021/04/20 08:36:24;;;;;;;3.70;2.35;;;13.60;73.70;;;;;;5063889;28;20377;-72
2021/04/20 08:39:03;;;;;;;4.55;3.05;;;13.70;73.70;;;;;;5053514;28;20021;-71
2021/04/20 08:41:36;;;;;;;4.40;2.97;;;13.70;73.70;;;;;;5082539;28;20513;-72
2021/04/20 08:44:30;;;;;;;5.03;2.90;;;13.80;73.70;;;;;;5073115;28;20036;-72
2021/04/20 08:47:14;;;;;;;5.10;3.63;;;13.90;73.60;;;;;;5073090;28;20021;-72
2021/04/20 08:49:45;;;;;;;4.60;3.08;;;14.00;73.50;;;;;;5072853;28;20028;-72
2021/04/20 08:52:17;;;;;;;5.10;3.35;;;14.00;73.40;;;;;;5072727;28;20024;-72
2021/04/20 08:55:05;;;;;;;6.32;4.13;;;14.10;73.30;;;;;;5067374;28;20033;-72
2021/04/20 08:57:58;;;;;;;5.82;3.70;;;14.20;73.20;;;;;;5073096;28;20023;-73
2021/04/20 09:00:41;;;;;;;5.13;3.58;;;14.20;73.10;;;;;;5073175;28;20028;-72
2021/04/20 09:03:20;;;;;;;5.30;3.53;;;14.30;73.10;;;;;;5073022;28;20044;-73
2021/04/20 09:05:51;;;;;;;3.95;3.13;;;14.40;73.10;;;;;;5062641;28;20025;-72
2021/04/20 09:08:35;;;;;;;5.18;3.72;;;14.50;72.90;;;;;;5053010;28;20028;-72
2021/04/20 09:11:06;;;;;;;5.22;3.85;;;14.60;72.70;;;;;;5053593;28;20485;-72
2021/04/20 09:13:47;;;;;;;6.03;4.07;;;14.70;72.50;;;;;;5053219;28;20086;-73
2021/04/20 09:16:15;;;;;;;5.65;3.85;;;14.80;72.40;;;;;;5065688;28;20021;-73
2021/04/20 09:18:43;;;;;;;6.40;4.35;;;14.90;72.30;;;;;;5064674;28;20033;-72
2021/04/20 09:21:20;;;;;;;4.40;2.97;;;15.00;72.20;;;;;;5070943;28;20043;-73
2021/04/20 09:23:54;;;;;;;4.63;3.75;;;15.10;72.10;;;;;;5063075;28;20031;-72
2021/04/20 09:26:35;;;;;;;5.75;4.32;;;15.20;72.10;;;;;;5071285;28;20358;-72
2021/04/20 09:29:22;;;;;;;4.38;3.15;;;15.30;71.70;;;;;;5070199;28;20093;-73
2021/04/20 09:31:55;;;;;;;5.70;3.72;;;15.40;71.50;;;;;;5069584;28;20025;-72
2021/04/20 09:34:25;;;;;;;6.07;4.30;;;15.50;71.40;;;;;;5074118;28;20021;-73
2021/04/20 09:36:51;;;;;;;5.28;3.47;;;15.50;71.10;;;;;;5076314;28;20060;-73
2021/04/20 09:39:20;;;;;;;4.50;3.00;;;15.60;71.10;;;;;;5075549;28;20082;-73
2021/04/20 09:41:47;;;;;;;4.95;3.35;;;15.80;71.00;;;;;;5076481;28;20142;-73
2021/04/20 09:45:05;;;;;;;5.45;3.65;;;15.90;70.80;;;;;;5074515;28;20036;-73
2021/04/20 09:47:42;;;;;;;5.43;3.55;;;16.00;70.60;;;;;;4994339;28;20110;-73
2021/04/20 09:50:39;;;;;;;4.13;2.70;;;16.10;70.30;;;;;;5003887;28;20041;-73
2021/04/20 09:53:37;;;;;;;4.20;3.05;;;16.20;70.20;;;;;;5002298;28;20030;-74
2021/04/20 09:56:30;;;;;;;3.78;2.65;;;16.30;70.10;;;;;;5014362;28;20070;-73
2021/04/20 09:58:55;;;;;;;4.55;3.15;;;16.40;69.90;;;;;;4994262;28;20605;-74
2021/04/20 10:01:47;;;;;;;4.05;2.95;;;16.50;69.80;;;;;;4993789;28;20122;-73
2021/04/20 10:04:40;;;;;;;4.05;2.97;;;16.60;69.50;;;;;;4995059;28;20041;-74
2021/04/20 10:07:27;;;;;;;4.32;2.92;;;16.60;69.30;;;;;;4995046;28;20070;-74
2021/04/20 10:10:00;;;;;;;4.40;3.05;;;16.70;69.20;;;;;;4995015;28;20039;-73
2021/04/20 10:12:58;;;;;;;4.18;3.17;;;16.70;68.90;;;;;;4994901;28;20072;-73
2021/04/20 10:15:28;;;;;;;5.75;3.25;;;16.80;68.70;;;;;;4995068;28;20081;-73
2021/04/20 10:18:04;;;;;;;4.20;2.85;;;16.80;68.80;;;;;;4994338;28;20026;-73
2021/04/20 10:20:41;;;;;;;4.90;2.83;;;16.90;68.70;;;;;;5000568;28;20390;-73
2021/04/20 10:23:30;;;;;;;5.00;3.55;;;17.10;68.10;;;;;;5056013;28;20051;-73
2021/04/20 10:26:37;;;;;;;4.50;3.35;;;17.10;67.80;;;;;;5055940;28;20033;-73
2021/04/20 10:29:33;;;;;;;3.78;2.63;;;17.20;68.10;;;;;;4975119;28;20043;-73
2021/04/20 10:32:15;;;;;;;3.22;2.65;;;17.30;68.00;;;;;;4958399;28;20031;-73
2021/04/20 10:34:51;;;;;;;3.50;2.33;;;17.40;67.50;;;;;;4975166;28;20034;-73
2021/04/20 10:37:29;;;;;;;1.90;1.77;;;17.50;67.20;;;;;;4958818;28;20397;-73
2021/04/20 10:39:56;;;;;;;3.10;2.38;;;17.60;67.10;;;;;;4974894;28;20034;-74
2021/04/20 10:42:32;;;;;;;3.00;2.33;;;17.70;66.90;;;;;;4974781;28;20046;-74
2021/04/20 10:44:59;;;;;;;2.83;2.20;;;17.70;66.70;;;;;;4957377;28;20062;-75
2021/04/20 10:47:26;;;;;;;2.33;2.00;;;17.90;66.50;;;;;;4974808;28;20034;-72
2021/04/20 10:49:53;;;;;;;3.83;2.50;;;18.00;66.30;;;;;;4974634;28;20518;-74
2021/04/20 10:52:22;;;;;;;3.53;2.70;;;18.00;66.00;;;;;;4958716;28;20031;-74
2021/04/20 10:54:49;;;;;;;2.88;2.35;;;18.10;65.70;;;;;;4974790;28;20502;-75
2021/04/20 10:57:15;;;;;;;3.38;2.50;;;18.10;65.70;;;;;;4974513;28;20110;-75
2021/04/20 10:59:50;;;;;;;4.00;2.90;;;18.10;65.40;;;;;;4980690;28;20062;-75
2021/04/20 11:02:23;;;;;;;4.13;2.90;;;18.10;65.20;;;;;;4992703;28;20038;-74
2021/04/20 11:04:51;;;;;;;3.67;2.70;;;18.20;65.10;;;;;;5020562;28;20032;-74
2021/04/20 11:07:19;;;;;;;4.32;2.83;;;18.30;64.80;;;;;;5073721;28;20021;-74
2021/04/20 11:09:59;;;;;;;2.85;2.40;;;18.30;64.50;;;;;;5073830;28;20469;-74
2021/04/20 11:12:26;;;;;;;3.72;2.60;;;18.40;64.30;;;;;;5073798;28;20150;-76
2021/04/20 11:14:53;;;;;;;4.38;2.40;;;18.50;64.30;;;;;;5073666;28;20115;-76
2021/04/20 11:17:19;;;;;;;2.85;2.42;;;18.50;64.20;;;;;;5054907;28;20033;-76
2021/04/20 11:19:49;;;;;;;4.25;2.75;;;18.60;63.70;;;;;;5074718;28;20036;-76
2021/04/20 11:22:18;;;;;;;2.58;2.17;;;18.60;63.40;;;;;;5073425;28;20029;-76
2021/04/20 11:24:52;;;;;;;3.58;2.25;;;18.70;63.50;;;;;;5074854;28;20469;-76
2021/04/20 11:27:22;;;;;;;3.78;2.55;;;18.80;63.50;;;;;;5074883;28;20133;-75
2021/04/20 11:30:08;;;;;;;2.67;2.08;;;18.90;63.10;;;;;;5074279;28;20017;-76
2021/04/20 11:32:36;;;;;;;3.03;2.22;;;19.00;62.90;;;;;;5074720;28;20032;-76
2021/04/20 11:35:07;;;;;;;2.63;2.08;;;19.20;62.90;;;;;;5073389;28;20024;-77
2021/04/20 11:37:34;;;;;;;2.78;2.33;;;19.30;62.50;;;;;;5074794;28;20020;-76
2021/04/20 11:40:07;;;;;;;3.17;2.33;;;19.50;62.40;;;;;;5074498;28;20051;-76
2021/04/20 11:42:41;;;;;;;3.83;1.90;;;19.70;62.30;;;;;;5074524;28;20116;-76
2021/04/20 11:45:19;;;;;;;4.45;1.95;;;20.00;61.90;;;;;;5073715;28;20132;-76
2021/04/20 11:47:59;;;;;;;1.98;1.65;;;20.60;61.30;;;;;;5072936;28;20016;-75
2021/04/20 11:50:29;;;;;;;2.15;1.85;;;21.10;60.40;;;;;;5073305;28;20060;-74
2021/04/20 11:53:03;;;;;;;3.97;3.15;;;21.70;59.50;;;;;;5073705;28;20020;-75
2021/04/20 11:55:32;;;;;;;2.47;2.15;;;21.90;58.90;;;;;;5073850;28;20090;-75
2021/04/20 11:58:03;;;;;;;3.83;2.30;;;21.90;59.10;;;;;;5072241;28;20020;-75
2021/04/20 12:00:29;;;;;;;4.45;2.70;;;22.10;58.80;;;;;;5072300;28;20032;-75
2021/04/20 12:02:56;;;;;;;3.38;2.60;;;22.40;58.60;;;;;;5073334;28;20457;-76
2021/04/20 12:05:22;;;;;;;3.13;2.38;;;22.60;58.10;;;;;;5073528;28;20148;-75
2021/04/20 12:07:49;;;;;;;4.05;2.90;;;22.90;57.90;;;;;;5073584;28;20046;-75
2021/04/20 12:10:17;;;;;;;3.65;2.67;;;23.10;57.10;;;;;;5073559;28;20024;-75
2021/04/20 12:12:48;;;;;;;4.38;2.85;;;23.20;57.00;;;;;;5071693;28;20191;-75
2021/04/20 12:15:17;;;;;;;4.70;3.30;;;23.30;56.80;;;;;;5071964;28;20025;-75
2021/04/20 12:17:49;;;;;;;4.47;3.17;;;23.40;56.70;;;;;;5090488;27;20371;-74
2021/04/20 12:20:19;;;;;;;3.78;3.08;;;23.70;56.00;;;;;;5090217;28;20024;-75
2021/04/20 12:22:55;;;;;;;4.72;3.13;;;23.60;55.90;;;;;;5090392;28;20499;-75
2021/04/20 12:25:22;;;;;;;3.97;2.97;;;23.60;55.90;;;;;;5090228;28;20016;-75
2021/04/20 12:27:52;;;;;;;3.33;2.80;;;23.60;56.00;;;;;;5089594;28;20028;-78
2021/04/20 12:30:20;;;;;;;4.22;3.50;;;23.70;55.70;;;;;;5090229;28;20020;-77
2021/04/20 12:32:46;;;;;;;3.53;3.00;;;23.90;55.40;;;;;;5090124;28;20028;-78
2021/04/20 12:35:12;;;;;;;3.63;2.53;;;23.80;55.50;;;;;;5090135;28;20017;-77
2021/04/20 12:37:39;;;;;;;2.17;1.95;;;24.00;55.30;;;;;;5089871;28;20056;-79
2021/04/20 12:40:12;;;;;;;2.72;1.90;;;24.10;55.40;;;;;;5088703;28;20025;-78
2021/04/20 12:42:41;;;;;;;2.30;2.05;;;24.50;55.00;;;;;;5088066;28;20027;-78
2021/04/20 12:45:11;;;;;;;2.78;2.22;;;24.90;54.40;;;;;;5089748;28;20572;-79
2021/04/20 12:47:37;;;;;;;2.38;2.05;;;25.10;54.30;;;;;;5089736;28;20033;-79
2021/04/20 12:50:07;;;;;;;2.47;2.10;;;25.30;54.10;;;;;;5088407;28;20368;-79
2021/04/20 12:52:34;;;;;;;2.58;2.20;;;25.60;53.70;;;;;;5087030;28;20052;-80
2021/04/20 12:55:04;;;;;;;3.88;2.40;;;25.70;53.50;;;;;;5089526;28;20499;-80
2021/04/20 12:57:32;;;;;;;2.45;1.88;;;25.80;53.50;;;;;;5087470;28;20028;-75
2021/04/20 13:00:02;;;;;;;2.60;2.00;;;25.70;53.40;;;;;;5088101;28;20399;-75
2021/04/20 13:02:28;;;;;;;2.00;1.77;;;25.80;53.60;;;;;;5089170;28;20469;-76
2021/04/20 13:05:02;;;;;;;3.08;2.25;;;25.90;53.40;;;;;;5088951;28;20078;-76
2021/04/20 13:07:29;;;;;;;3.95;2.15;;;26.00;53.10;;;;;;5087696;28;20085;-75
2021/04/20 13:09:56;;;;;;;3.60;2.72;;;25.90;52.90;;;;;;5087404;28;20123;-75
2021/04/20 13:12:25;;;;;;;3.13;2.30;;;25.70;53.10;;;;;;5089342;28;20107;-76
2021/04/20 13:14:52;;;;;;;3.30;2.53;;;25.70;53.40;;;;;;5089301;28;20023;-75